createdAt,value
2019-04-11T00:05:04.339Z,23.5
2019-04-11T00:20:04.222Z,23.5
2019-04-11T00:35:03.706Z,23.5
2019-04-11T00:50:05.600Z,23.5
2019-04-11T01:05:05.365Z,23.5
2019-04-11T01:20:04.974Z,23.3
2019-04-11T01:35:02.736Z,23.3
2019-04-11T01:50:05.497Z,23.1
2019-04-11T02:05:03.459Z,23.1
2019-04-11T02:20:05.046Z,23
2019-04-11T02:35:05.069Z,23
2019-04-11T02:50:04.171Z,22.9
2019-04-11T03:05:05.331Z,22.9
2019-04-11T03:20:15.241Z,22.9
2019-04-11T03:35:59.184Z,22.9
2019-04-11T03:50:08.114Z,22.9
2019-04-11T04:05:06.554Z,22.9
2019-04-11T04:20:05.444Z,22.8
2019-04-11T04:35:08.946Z,22.8
2019-04-11T04:50:06.146Z,22.8
2019-04-11T05:05:06.080Z,22.8
2019-04-11T05:20:05.013Z,22.8
2019-04-11T05:35:04.802Z,22.9
2019-04-11T05:50:06.431Z,23
2019-04-11T06:05:04.085Z,23.1
2019-04-11T06:20:04.378Z,23.2
2019-04-11T06:35:04.010Z,23.3
2019-04-11T06:50:03.745Z,23.4
2019-04-11T07:05:04.588Z,23.5
2019-04-11T07:20:06.721Z,23.6
2019-04-11T07:35:04.766Z,23.6
2019-04-11T07:50:03.489Z,23.7
2019-04-11T08:05:04.664Z,23.8
2019-04-11T08:20:06.227Z,23.9
2019-04-11T08:35:04.399Z,23.9
2019-04-11T08:50:06.069Z,24
2019-04-11T09:05:11.874Z,24
2019-04-11T09:20:03.486Z,24.1
2019-04-11T09:35:05.864Z,24.1
2019-04-11T09:50:04.325Z,24.3
2019-04-11T10:05:05.276Z,24.3
2019-04-11T10:20:04.663Z,24.4
2019-04-11T10:35:06.061Z,24.5
2019-04-11T10:50:04.719Z,24.7
2019-04-11T11:05:03.435Z,24.8
2019-04-11T11:20:11.575Z,25
2019-04-11T11:35:05.236Z,25
2019-04-11T11:50:05.774Z,25.1
2019-04-11T12:05:07.635Z,25.1
2019-04-11T12:20:09.620Z,25.2
2019-04-11T12:35:04.051Z,25.2
2019-04-11T12:50:04.238Z,25.3
2019-04-11T13:05:04.579Z,25.3
2019-04-11T13:20:04.438Z,25.3
2019-04-11T13:35:03.687Z,25.3
2019-04-11T13:50:16.072Z,25.3
2019-04-11T14:05:04.930Z,25.2
2019-04-11T14:20:03.645Z,25.2
2019-04-11T14:35:04.907Z,25.2
2019-04-11T14:50:03.410Z,25.1
2019-04-11T15:05:06.060Z,25.1
2019-04-11T15:20:04.146Z,25.1
2019-04-11T15:35:03.507Z,25.1
2019-04-11T15:50:04.632Z,25.1
2019-04-11T16:05:04.502Z,25.1
2019-04-11T16:20:04.224Z,25.1
2019-04-11T16:35:03.873Z,25
2019-04-11T16:50:04.013Z,24.8
2019-04-11T17:05:03.568Z,24.7
2019-04-11T17:20:06.408Z,24.5
2019-04-11T17:35:06.766Z,24.4
2019-04-11T17:50:06.011Z,24.1
2019-04-11T18:05:03.475Z,24
2019-04-11T18:20:06.871Z,23.8
2019-04-11T18:35:05.130Z,23.8
2019-04-11T18:50:04.158Z,23.6
2019-04-11T19:05:03.938Z,23.6
2019-04-11T19:20:04.498Z,23.5
2019-04-11T19:35:03.868Z,23.4
2019-04-11T19:50:03.483Z,23.4
2019-04-11T20:05:04.160Z,23.3
2019-04-11T20:20:06.995Z,23.2
2019-04-11T20:35:03.947Z,23.1
2019-04-11T20:50:07.523Z,23.1
2019-04-11T21:05:03.017Z,23
2019-04-11T21:20:03.841Z,23.1
2019-04-11T21:35:03.187Z,23.2
2019-04-11T21:50:03.932Z,23.3
2019-04-11T22:05:02.981Z,23.3
2019-04-11T22:20:03.539Z,23.4
2019-04-11T22:35:04.384Z,23.4
2019-04-11T22:50:03.907Z,23.4
2019-04-11T23:05:06.489Z,23.5
2019-04-11T23:20:03.760Z,23.5
2019-04-11T23:35:04.335Z,23.5
2019-04-11T23:50:04.035Z,23.5
